createdAt,value
2019-05-17T00:00:37.113Z,11.02
2019-05-17T00:01:34.656Z,10.99
2019-05-17T00:02:37.153Z,10.99
2019-05-17T00:03:36.522Z,11.02
2019-05-17T00:04:36.412Z,11.06
2019-05-17T00:05:37.126Z,11.00
2019-05-17T00:06:36.801Z,11.04
2019-05-17T00:07:36.723Z,11.00
2019-05-17T00:08:35.582Z,11.00
2019-05-17T00:09:34.445Z,11.07
2019-05-17T00:10:34.420Z,10.99
2019-05-17T00:11:36.628Z,11.02
2019-05-17T00:12:36.441Z,10.96
2019-05-17T00:13:34.353Z,10.97
2019-05-17T00:14:36.488Z,10.99
2019-05-17T00:15:36.636Z,11.07
2019-05-17T00:16:34.258Z,11.04
2019-05-17T00:17:34.234Z,11.00
2019-05-17T00:18:34.205Z,11.00
2019-05-17T00:19:34.181Z,10.99
2019-05-17T00:20:34.150Z,11.03
2019-05-17T00:21:34.127Z,11.00
2019-05-17T00:22:36.394Z,11.03
2019-05-17T00:23:34.073Z,10.97
2019-05-17T00:24:34.054Z,11.00
2019-05-17T00:25:34.027Z,11.04
2019-05-17T00:26:36.207Z,11.02
2019-05-17T00:27:33.966Z,11.02
2019-05-17T00:28:33.939Z,11.04
2019-05-17T00:29:33.917Z,10.99
2019-05-17T00:30:33.887Z,10.99
2019-05-17T00:31:33.861Z,11.06
2019-05-17T00:32:33.833Z,11.00
2019-05-17T00:33:33.807Z,11.02
2019-05-17T00:34:33.787Z,11.03
2019-05-17T00:35:33.753Z,11.02
2019-05-17T00:36:33.727Z,10.99
2019-05-17T00:37:33.702Z,11.09
2019-05-17T00:38:45.586Z,10.94
2019-05-17T00:39:33.649Z,11.03
2019-05-17T00:40:33.621Z,10.97
2019-05-17T00:41:33.595Z,10.96
2019-05-17T00:42:33.569Z,10.97
2019-05-17T00:43:33.542Z,10.99
2019-05-17T00:44:33.515Z,10.94
2019-05-17T00:45:33.488Z,11.02
2019-05-17T00:46:33.463Z,11.15
2019-05-17T00:47:33.435Z,10.94
2019-05-17T00:48:33.411Z,10.97
2019-05-17T00:49:33.383Z,11.06
2019-05-17T00:50:33.357Z,11.02
2019-05-17T00:51:33.327Z,11.02
2019-05-17T00:52:33.302Z,11.11
2019-05-17T00:53:33.276Z,11.02
2019-05-17T00:54:33.251Z,10.94
2019-05-17T00:55:33.222Z,11.10
2019-05-17T00:56:33.197Z,10.99
2019-05-17T00:57:33.169Z,10.97
2019-05-17T00:58:33.145Z,11.02
2019-05-17T00:59:33.115Z,11.09
2019-05-17T01:00:33.092Z,11.00
2019-05-17T01:01:33.064Z,10.99
2019-05-17T01:02:33.037Z,11.15
2019-05-17T01:03:33.012Z,11.00
2019-05-17T01:04:32.982Z,11.00
2019-05-17T01:05:32.957Z,11.02
2019-05-17T01:06:32.930Z,11.00
2019-05-17T01:07:32.903Z,11.10
2019-05-17T01:08:32.876Z,11.00
2019-05-17T01:09:32.855Z,11.02
2019-05-17T01:10:32.823Z,11.02
2019-05-17T01:11:32.797Z,10.99
2019-05-17T01:12:32.771Z,10.97
2019-05-17T01:13:32.743Z,10.97
2019-05-17T01:14:32.716Z,10.97
2019-05-17T01:15:32.695Z,11.15
2019-05-17T01:16:32.663Z,11.15
2019-05-17T01:17:32.638Z,11.00
2019-05-17T01:18:32.613Z,11.06
2019-05-17T01:19:32.589Z,11.10
2019-05-17T01:20:32.555Z,11.15
2019-05-17T01:21:32.529Z,11.02
2019-05-17T01:22:32.502Z,11.09
2019-05-17T01:23:32.476Z,11.07
2019-05-17T01:24:32.450Z,11.09
2019-05-17T01:25:32.422Z,11.07
2019-05-17T01:26:32.400Z,11.11
2019-05-17T01:27:32.369Z,11.14
2019-05-17T01:28:32.343Z,11.07
2019-05-17T01:29:32.324Z,11.09
2019-05-17T01:30:32.296Z,11.09
2019-05-17T01:31:32.262Z,11.11
2019-05-17T01:32:32.237Z,11.11
2019-05-17T01:33:32.209Z,11.09
2019-05-17T01:34:32.184Z,11.09
2019-05-17T01:35:32.156Z,11.14
2019-05-17T01:36:32.129Z,10.97
2019-05-17T01:37:32.103Z,11.10
2019-05-17T01:38:32.076Z,11.07
2019-05-17T01:39:33.624Z,11.06
2019-05-17T01:40:32.022Z,11.11
2019-05-17T01:41:31.995Z,11.17
2019-05-17T01:42:31.969Z,11.10
2019-05-17T01:43:31.942Z,11.06
2019-05-17T01:44:31.916Z,11.11
2019-05-17T01:45:31.889Z,11.09
2019-05-17T01:46:31.864Z,11.17
2019-05-17T01:47:31.837Z,11.09
2019-05-17T01:48:31.811Z,11.10
2019-05-17T01:49:31.784Z,11.15
2019-05-17T01:50:31.758Z,11.11
2019-05-17T01:51:31.728Z,11.11
2019-05-17T01:52:31.703Z,11.09
2019-05-17T01:53:31.676Z,11.10
2019-05-17T01:54:31.650Z,11.10
2019-05-17T01:55:31.623Z,11.07
2019-05-17T01:56:31.596Z,11.11
2019-05-17T01:57:31.572Z,11.14
2019-05-17T01:58:31.542Z,11.11
2019-05-17T01:59:31.516Z,11.02
2019-05-17T02:00:31.521Z,11.17
2019-05-17T02:01:31.464Z,11.10
2019-05-17T02:02:31.439Z,11.14
2019-05-17T02:03:31.410Z,11.03
2019-05-17T02:04:31.382Z,11.10
2019-05-17T02:05:31.358Z,11.17
2019-05-17T02:06:31.331Z,11.21
2019-05-17T02:07:31.304Z,10.99
2019-05-17T02:08:31.279Z,11.09
2019-05-17T02:09:37.193Z,11.11
2019-05-17T02:10:31.225Z,11.14
2019-05-17T02:11:31.197Z,11.14
2019-05-17T02:12:31.171Z,11.17
2019-05-17T02:13:31.145Z,11.18
2019-05-17T02:14:31.118Z,11.10
2019-05-17T02:15:31.101Z,11.04
2019-05-17T02:16:31.068Z,11.15
2019-05-17T02:17:31.039Z,11.19
2019-05-17T02:18:31.012Z,11.02
2019-05-17T02:19:30.985Z,11.10
2019-05-17T02:20:30.959Z,11.09
2019-05-17T02:21:30.933Z,11.07
2019-05-17T02:22:30.908Z,11.17
2019-05-17T02:23:30.879Z,11.11
2019-05-17T02:24:30.854Z,11.03
2019-05-17T02:25:30.825Z,11.15
2019-05-17T02:26:30.802Z,11.11
2019-05-17T02:27:35.938Z,11.09
2019-05-17T02:28:32.180Z,11.07
2019-05-17T02:29:32.177Z,11.02
2019-05-17T02:30:33.813Z,11.15
2019-05-17T02:31:32.896Z,11.11
2019-05-17T02:32:33.497Z,11.11
2019-05-17T02:33:33.135Z,11.15
2019-05-17T02:34:33.485Z,11.11
2019-05-17T02:35:33.686Z,11.15
2019-05-17T02:36:33.281Z,11.14
2019-05-17T02:37:33.198Z,11.15
2019-05-17T02:38:33.338Z,11.11
2019-05-17T02:39:32.682Z,11.06
2019-05-17T02:40:33.511Z,11.11
2019-05-17T02:41:33.083Z,11.11
2019-05-17T02:42:33.003Z,11.15
2019-05-17T02:43:33.268Z,11.11
2019-05-17T02:44:33.635Z,11.11
2019-05-17T02:45:32.805Z,11.15
2019-05-17T02:46:33.542Z,11.14
2019-05-17T02:47:33.342Z,11.11
2019-05-17T02:48:33.410Z,11.15
2019-05-17T02:49:33.021Z,11.11
2019-05-17T02:50:33.111Z,11.14
2019-05-17T02:51:32.406Z,11.09
2019-05-17T02:52:32.811Z,11.09
2019-05-17T02:53:33.151Z,11.14
2019-05-17T02:54:32.839Z,11.14
2019-05-17T02:55:32.466Z,11.14
2019-05-17T02:56:32.784Z,11.11
2019-05-17T02:57:29.982Z,11.09
2019-05-17T02:58:32.840Z,11.11
2019-05-17T02:59:32.810Z,11.10
2019-05-17T03:00:33.323Z,11.14
2019-05-17T03:01:32.857Z,11.18
2019-05-17T03:02:29.845Z,11.11
2019-05-17T03:03:32.324Z,11.06
2019-05-17T03:04:32.474Z,11.11
2019-05-17T03:05:33.413Z,11.14
2019-05-17T03:06:32.589Z,11.10
2019-05-17T03:07:32.439Z,11.14
2019-05-17T03:08:29.685Z,11.09
2019-05-17T03:09:29.660Z,11.15
2019-05-17T03:10:29.631Z,11.15
2019-05-17T03:11:33.014Z,11.14
2019-05-17T03:12:32.639Z,11.11
2019-05-17T03:13:32.665Z,11.06
2019-05-17T03:14:32.539Z,11.11
2019-05-17T03:15:32.210Z,11.10
2019-05-17T03:16:29.475Z,11.17
2019-05-17T03:17:29.456Z,11.21
2019-05-17T03:18:29.423Z,11.11
2019-05-17T03:19:32.561Z,11.10
2019-05-17T03:20:32.382Z,11.14
2019-05-17T03:21:29.343Z,11.14
2019-05-17T03:22:29.318Z,11.18
2019-05-17T03:23:32.654Z,11.11
2019-05-17T03:24:29.273Z,11.09
2019-05-17T03:25:29.245Z,11.09
2019-05-17T03:26:32.547Z,11.09
2019-05-17T03:27:29.186Z,11.14
2019-05-17T03:28:29.160Z,11.09
2019-05-17T03:29:29.132Z,11.11
2019-05-17T03:30:29.120Z,11.21
2019-05-17T03:31:36.221Z,11.10
2019-05-17T03:32:35.428Z,11.02
2019-05-17T03:33:35.157Z,11.07
2019-05-17T03:34:29.020Z,11.14
2019-05-17T03:35:29.001Z,11.14
2019-05-17T03:36:28.946Z,11.14
2019-05-17T03:37:36.453Z,11.09
2019-05-17T03:38:28.902Z,11.15
2019-05-17T03:39:28.867Z,11.07
2019-05-17T03:40:58.465Z,11.09
2019-05-17T03:41:29.536Z,11.14
2019-05-17T03:42:28.788Z,11.11
2019-05-17T03:43:28.760Z,11.10
2019-05-17T03:44:28.733Z,11.17
2019-05-17T03:45:28.714Z,11.18
2019-05-17T03:46:28.683Z,11.11
2019-05-17T03:47:28.654Z,10.99
2019-05-17T03:48:28.629Z,11.22
2019-05-17T03:49:28.601Z,11.03
2019-05-17T03:50:28.575Z,11.04
2019-05-17T03:51:28.549Z,11.15
2019-05-17T03:52:28.523Z,11.14
2019-05-17T03:53:28.496Z,11.14
2019-05-17T03:54:28.473Z,11.03
2019-05-17T03:55:28.448Z,10.96
2019-05-17T03:56:28.417Z,11.09
2019-05-17T03:57:28.392Z,11.09
2019-05-17T03:58:28.363Z,11.10
2019-05-17T03:59:28.350Z,11.11
2019-05-17T04:00:28.310Z,11.11
2019-05-17T04:01:28.285Z,11.15
2019-05-17T04:02:28.259Z,11.11
2019-05-17T04:03:31.102Z,11.15
2019-05-17T04:04:28.207Z,11.15
2019-05-17T04:05:28.179Z,11.14
2019-05-17T04:06:28.152Z,11.11
2019-05-17T04:07:28.128Z,11.25
2019-05-17T04:08:28.097Z,11.10
2019-05-17T04:09:28.073Z,11.17
2019-05-17T04:10:28.050Z,11.21
2019-05-17T04:11:32.859Z,11.24
2019-05-17T04:12:27.993Z,11.15
2019-05-17T04:13:27.966Z,11.22
2019-05-17T04:14:27.939Z,11.36
2019-05-17T04:15:27.926Z,11.22
2019-05-17T04:16:27.887Z,11.22
2019-05-17T04:17:27.861Z,11.24
2019-05-17T04:18:27.834Z,11.27
2019-05-17T04:19:27.809Z,11.24
2019-05-17T04:20:27.785Z,11.29
2019-05-17T04:21:27.757Z,11.27
2019-05-17T04:22:27.734Z,11.19
2019-05-17T04:23:27.702Z,11.35
2019-05-17T04:24:27.676Z,11.24
2019-05-17T04:25:27.650Z,11.27
2019-05-17T04:26:27.624Z,11.27
2019-05-17T04:27:27.599Z,11.36
2019-05-17T04:28:27.571Z,11.29
2019-05-17T04:29:27.545Z,11.28
2019-05-17T04:30:27.520Z,11.37
2019-05-17T04:31:30.726Z,11.36
2019-05-17T04:32:27.467Z,11.42
2019-05-17T04:33:27.441Z,11.52
2019-05-17T04:34:27.416Z,11.60
2019-05-17T04:35:27.387Z,11.69
2019-05-17T04:36:27.362Z,11.61
2019-05-17T04:37:27.335Z,11.58
2019-05-17T04:38:27.311Z,11.60
2019-05-17T04:39:27.281Z,11.60
2019-05-17T04:40:27.255Z,11.51
2019-05-17T04:41:41.582Z,11.44
2019-05-17T04:42:27.205Z,11.40
2019-05-17T04:43:27.192Z,11.33
2019-05-17T04:44:27.163Z,11.43
2019-05-17T04:45:27.135Z,11.24
2019-05-17T04:46:27.101Z,11.33
2019-05-17T04:47:27.078Z,11.35
2019-05-17T04:48:27.049Z,11.11
2019-05-17T04:49:27.024Z,11.32
2019-05-17T04:50:26.996Z,11.32
2019-05-17T04:51:26.971Z,11.33
2019-05-17T04:52:26.945Z,11.40
2019-05-17T04:53:26.919Z,11.42
2019-05-17T04:54:26.900Z,11.57
2019-05-17T04:55:26.865Z,11.46
2019-05-17T04:56:26.840Z,11.42
2019-05-17T04:57:26.815Z,11.47
2019-05-17T04:58:26.786Z,11.43
2019-05-17T04:59:26.761Z,11.44
2019-05-17T05:00:26.735Z,11.42
2019-05-17T05:01:26.709Z,11.49
2019-05-17T05:02:26.681Z,11.43
2019-05-17T05:03:26.656Z,11.46
2019-05-17T05:04:26.634Z,11.47
2019-05-17T05:05:26.605Z,11.43
2019-05-17T05:06:26.577Z,11.42
2019-05-17T05:07:26.550Z,11.44
2019-05-17T05:08:26.525Z,11.43
2019-05-17T05:09:26.500Z,11.49
2019-05-17T05:10:26.473Z,11.47
2019-05-17T05:11:26.444Z,11.60
2019-05-17T05:12:26.420Z,11.61
2019-05-17T05:13:26.395Z,11.58
2019-05-17T05:14:26.370Z,11.60
2019-05-17T05:15:26.342Z,11.72
2019-05-17T05:16:26.314Z,11.70
2019-05-17T05:17:26.287Z,11.72
2019-05-17T05:18:26.262Z,11.65
2019-05-17T05:19:26.241Z,11.58
2019-05-17T05:20:26.212Z,11.54
2019-05-17T05:21:26.185Z,11.62
2019-05-17T05:22:26.159Z,11.58
2019-05-17T05:23:26.133Z,11.61
2019-05-17T05:24:26.105Z,11.67
2019-05-17T05:25:26.079Z,11.80
2019-05-17T05:26:26.054Z,11.83
2019-05-17T05:27:26.027Z,11.86
2019-05-17T05:28:26.003Z,11.98
2019-05-17T05:29:25.977Z,12.14
2019-05-17T05:30:25.950Z,12.42
2019-05-17T05:31:25.924Z,12.70
2019-05-17T05:32:25.899Z,12.77
2019-05-17T05:33:25.873Z,12.83
2019-05-17T05:34:25.849Z,12.82
2019-05-17T05:35:25.822Z,12.83
2019-05-17T05:36:25.797Z,12.86
2019-05-17T05:37:25.772Z,12.92
2019-05-17T05:38:25.748Z,13.08
2019-05-17T05:39:25.720Z,13.30
2019-05-17T05:40:25.696Z,13.26
2019-05-17T05:41:25.671Z,13.17
2019-05-17T05:42:25.646Z,13.20
2019-05-17T05:43:25.622Z,13.05
2019-05-17T05:44:25.602Z,12.87
2019-05-17T05:45:25.573Z,12.89
2019-05-17T05:46:25.549Z,12.92
2019-05-17T05:47:25.529Z,12.86
2019-05-17T05:48:25.498Z,12.90
2019-05-17T05:49:25.475Z,12.92
2019-05-17T05:50:25.450Z,13.08
2019-05-17T05:51:25.424Z,13.07
2019-05-17T05:52:25.401Z,12.93
2019-05-17T05:53:25.377Z,12.79
2019-05-17T05:54:25.352Z,12.95
2019-05-17T05:55:25.328Z,12.92
2019-05-17T05:56:25.301Z,13.03
2019-05-17T05:57:25.280Z,13.23
2019-05-17T05:58:25.260Z,13.19
2019-05-17T05:59:25.230Z,13.57
2019-05-17T06:00:25.207Z,14.18
2019-05-17T06:01:25.182Z,14.21
2019-05-17T06:02:25.158Z,14.07
2019-05-17T06:03:25.134Z,14.45
2019-05-17T06:04:25.110Z,14.91
2019-05-17T06:05:25.089Z,15.16
2019-05-17T06:06:25.063Z,15.60
2019-05-17T06:07:25.038Z,15.78
2019-05-17T06:08:25.016Z,16.07
2019-05-17T06:09:25.001Z,16.34
2019-05-17T06:10:24.970Z,16.56
2019-05-17T06:11:24.948Z,17.12
2019-05-17T06:12:28.097Z,17.26
2019-05-17T06:13:24.903Z,17.79
2019-05-17T06:14:24.881Z,18.05
2019-05-17T06:15:24.861Z,18.44
2019-05-17T06:16:24.837Z,18.47
2019-05-17T06:17:24.815Z,18.65
2019-05-17T06:18:24.798Z,18.73
2019-05-17T06:19:24.771Z,18.12
2019-05-17T06:20:24.752Z,17.93
2019-05-17T06:21:24.731Z,17.41
2019-05-17T06:22:24.710Z,17.14
2019-05-17T06:23:24.688Z,16.93
2019-05-17T06:24:24.668Z,16.89
2019-05-17T06:25:24.653Z,17.84
2019-05-17T06:26:24.630Z,18.18
2019-05-17T06:27:24.607Z,18.55
2019-05-17T06:28:24.588Z,18.39
2019-05-17T06:29:24.567Z,18.48
2019-05-17T06:30:24.547Z,17.72
2019-05-17T06:31:24.527Z,17.52
2019-05-17T06:32:24.509Z,17.41
2019-05-17T06:33:30.415Z,18.18
2019-05-17T06:34:24.469Z,18.54
2019-05-17T06:35:24.452Z,18.76
2019-05-17T06:36:24.429Z,18.26
2019-05-17T06:37:24.410Z,18.50
2019-05-17T06:38:24.390Z,18.42
2019-05-17T06:39:24.371Z,18.62
2019-05-17T06:40:24.359Z,18.62
2019-05-17T06:41:24.333Z,18.12
2019-05-17T06:42:37.447Z,18.30
2019-05-17T06:43:24.295Z,17.33
2019-05-17T06:44:24.277Z,17.00
2019-05-17T06:45:24.261Z,17.30
2019-05-17T06:46:24.240Z,17.63
2019-05-17T06:47:24.224Z,17.56
2019-05-17T06:48:24.201Z,17.71
2019-05-17T06:49:24.183Z,17.82
2019-05-17T06:50:24.164Z,17.00
2019-05-17T06:51:24.146Z,16.94
2019-05-17T06:52:24.129Z,16.41
2019-05-17T06:53:24.107Z,16.30
2019-05-17T06:54:24.091Z,16.57
2019-05-17T06:55:24.336Z,17.22
2019-05-17T06:56:24.048Z,17.33
2019-05-17T06:57:24.028Z,17.97
2019-05-17T06:58:24.008Z,18.62
2019-05-17T06:59:23.988Z,19.28
2019-05-17T07:00:24.180Z,19.80
2019-05-17T07:01:23.950Z,19.22
2019-05-17T07:02:23.930Z,18.94
2019-05-17T07:03:23.911Z,19.59
2019-05-17T07:04:23.894Z,20.52
2019-05-17T07:05:23.874Z,21.03
2019-05-17T07:06:23.863Z,21.68
2019-05-17T07:07:23.835Z,21.59
2019-05-17T07:08:23.817Z,21.28
2019-05-17T07:09:23.799Z,21.56
2019-05-17T07:10:23.782Z,20.92
2019-05-17T07:11:23.764Z,21.31
2019-05-17T07:12:23.749Z,21.94
2019-05-17T07:13:23.728Z,22.22
2019-05-17T07:14:23.711Z,22.33
2019-05-17T07:15:23.694Z,21.82
2019-05-17T07:16:23.676Z,21.27
2019-05-17T07:17:23.659Z,21.13
2019-05-17T07:18:23.642Z,20.76
2019-05-17T07:19:23.627Z,21.03
2019-05-17T07:20:23.608Z,21.24
2019-05-17T07:21:23.591Z,21.52
2019-05-17T07:22:23.575Z,21.24
2019-05-17T07:23:23.558Z,20.73
2019-05-17T07:24:23.540Z,20.79
2019-05-17T07:25:23.526Z,21.04
2019-05-17T07:26:23.508Z,20.76
2019-05-17T07:27:37.608Z,20.85
2019-05-17T07:28:23.473Z,21.13
2019-05-17T07:29:23.455Z,21.28
2019-05-17T07:30:23.441Z,21.88
2019-05-17T07:31:23.427Z,21.64
2019-05-17T07:32:23.405Z,20.79
2019-05-17T07:33:23.388Z,20.74
2019-05-17T07:34:23.374Z,20.85
2019-05-17T07:35:23.354Z,20.91
2019-05-17T07:36:23.337Z,20.64
2019-05-17T07:37:23.323Z,19.32
2019-05-17T07:38:23.303Z,19.41
2019-05-17T07:39:23.286Z,19.95
2019-05-17T07:40:23.269Z,21.04
2019-05-17T07:41:23.259Z,21.61
2019-05-17T07:42:23.235Z,21.28
2019-05-17T07:43:23.217Z,19.98
2019-05-17T07:44:23.200Z,20.43
2019-05-17T07:45:23.183Z,21.10
2019-05-17T07:46:23.167Z,21.61
2019-05-17T07:47:23.149Z,21.65
2019-05-17T07:48:23.134Z,21.77
2019-05-17T07:49:23.115Z,22.37
2019-05-17T07:50:23.101Z,22.65
2019-05-17T07:51:23.084Z,22.58
2019-05-17T07:52:23.067Z,22.80
2019-05-17T07:53:23.049Z,23.28
2019-05-17T07:54:23.034Z,22.60
2019-05-17T07:55:23.203Z,22.36
2019-05-17T07:56:23.002Z,21.49
2019-05-17T07:57:22.985Z,21.25
2019-05-17T07:58:22.967Z,19.56
2019-05-17T07:59:22.951Z,19.21
2019-05-17T08:00:22.940Z,19.23
2019-05-17T08:01:22.921Z,19.06
2019-05-17T08:02:22.900Z,19.11
2019-05-17T08:03:24.804Z,19.37
2019-05-17T08:04:22.869Z,19.11
2019-05-17T08:05:22.850Z,19.07
2019-05-17T08:06:22.832Z,18.57
2019-05-17T08:07:22.813Z,18.27
2019-05-17T08:08:22.797Z,18.12
2019-05-17T08:09:22.783Z,18.18
2019-05-17T08:10:22.760Z,18.76
2019-05-17T08:11:22.742Z,18.81
2019-05-17T08:12:22.724Z,19.21
2019-05-17T08:13:30.093Z,20.03
2019-05-17T08:14:30.111Z,21.07
2019-05-17T08:15:22.668Z,21.65
2019-05-17T08:16:22.649Z,22.51
2019-05-17T08:17:22.632Z,23.09
2019-05-17T08:18:22.613Z,23.35
2019-05-17T08:19:22.597Z,23.33
2019-05-17T08:20:22.577Z,23.35
2019-05-17T08:21:22.560Z,23.12
2019-05-17T08:22:22.543Z,23.40
2019-05-17T08:23:22.526Z,23.05
2019-05-17T08:24:22.509Z,22.75
2019-05-17T08:25:22.492Z,22.30
2019-05-17T08:26:22.480Z,22.51
2019-05-17T08:27:22.458Z,22.98
2019-05-17T08:28:22.440Z,23.46
2019-05-17T08:29:22.425Z,23.76
2019-05-17T08:30:22.408Z,23.73
2019-05-17T08:31:22.391Z,22.97
2019-05-17T08:32:22.373Z,22.79
2019-05-17T08:33:22.360Z,22.14
2019-05-17T08:34:22.342Z,21.82
2019-05-17T08:35:22.326Z,21.71
2019-05-17T08:36:22.310Z,21.53
2019-05-17T08:37:22.299Z,20.87
2019-05-17T08:38:22.278Z,21.52
2019-05-17T08:39:22.265Z,21.53
2019-05-17T08:40:22.246Z,21.80
2019-05-17T08:41:22.247Z,22.14
2019-05-17T08:42:22.211Z,22.17
2019-05-17T08:43:22.195Z,22.42
2019-05-17T08:44:22.178Z,22.95
2019-05-17T08:45:22.162Z,22.95
2019-05-17T08:46:22.147Z,22.88
2019-05-17T08:47:22.129Z,23.48
2019-05-17T08:48:22.113Z,23.87
2019-05-17T08:49:22.096Z,23.76
2019-05-17T08:50:22.081Z,23.13
2019-05-17T08:51:22.065Z,23.43
2019-05-17T08:52:22.049Z,23.50
2019-05-17T08:53:22.035Z,22.12
2019-05-17T08:54:22.018Z,21.53
2019-05-17T08:55:22.008Z,21.25
2019-05-17T08:56:21.987Z,21.35
2019-05-17T08:57:21.974Z,21.25
2019-05-17T08:58:21.954Z,20.79
2019-05-17T08:59:21.938Z,20.02
2019-05-17T09:00:21.922Z,19.61
2019-05-17T09:01:21.905Z,19.39
2019-05-17T09:02:21.888Z,19.61
2019-05-17T09:03:21.870Z,19.71
2019-05-17T09:04:21.862Z,19.55
2019-05-17T09:05:21.839Z,19.40
2019-05-17T09:06:21.820Z,19.28
2019-05-17T09:07:21.801Z,19.69
2019-05-17T09:08:21.784Z,20.97
2019-05-17T09:09:21.767Z,22.28
2019-05-17T09:10:21.751Z,23.01
2019-05-17T09:11:21.732Z,22.20
2019-05-17T09:12:21.715Z,21.54
2019-05-17T09:13:21.699Z,20.74
2019-05-17T09:14:21.681Z,20.17
2019-05-17T09:15:21.664Z,19.56
2019-05-17T09:16:21.652Z,19.25
2019-05-17T09:17:21.629Z,19.13
2019-05-17T09:18:21.612Z,19.19
2019-05-17T09:19:21.594Z,19.02
2019-05-17T09:20:21.575Z,19.06
2019-05-17T09:21:22.102Z,18.90
2019-05-17T09:22:21.539Z,18.62
2019-05-17T09:23:21.521Z,18.58
2019-05-17T09:24:21.503Z,18.51
2019-05-17T09:25:22.099Z,18.55
2019-05-17T09:26:21.472Z,18.42
2019-05-17T09:27:21.447Z,18.42
2019-05-17T09:28:21.428Z,18.48
2019-05-17T09:29:21.408Z,18.62
2019-05-17T09:30:21.389Z,18.75
2019-05-17T09:31:21.371Z,18.99
2019-05-17T09:32:21.353Z,20.26
2019-05-17T09:33:21.340Z,20.24
2019-05-17T09:34:21.329Z,20.06
2019-05-17T09:35:21.294Z,19.96
2019-05-17T09:36:21.277Z,20.35
2019-05-17T09:37:22.616Z,21.42
2019-05-17T09:38:21.240Z,22.30
2019-05-17T09:39:21.219Z,22.90
2019-05-17T09:40:21.208Z,23.51
2019-05-17T09:41:21.184Z,23.57
2019-05-17T09:42:21.165Z,23.75
2019-05-17T09:43:21.148Z,23.53
2019-05-17T09:44:21.132Z,23.27
2019-05-17T09:45:21.115Z,23.42
2019-05-17T09:46:21.097Z,22.76
2019-05-17T09:47:21.078Z,22.47
2019-05-17T09:48:21.069Z,21.50
2019-05-17T09:49:21.046Z,21.37
2019-05-17T09:50:21.029Z,21.01
2019-05-17T09:51:21.012Z,20.57
2019-05-17T09:52:20.995Z,20.26
2019-05-17T09:53:20.979Z,19.91
2019-05-17T09:54:20.963Z,19.61
2019-05-17T09:55:20.982Z,19.29
2019-05-17T09:56:20.926Z,19.22
2019-05-17T09:57:20.907Z,19.26
2019-05-17T09:58:21.641Z,19.40
2019-05-17T09:59:20.870Z,19.41
2019-05-17T10:00:21.088Z,19.28
2019-05-17T10:01:20.836Z,19.21
2019-05-17T10:02:20.820Z,19.31
2019-05-17T10:03:23.939Z,19.40
2019-05-17T10:04:20.781Z,19.43
2019-05-17T10:05:20.764Z,19.40
2019-05-17T10:06:20.750Z,19.46
2019-05-17T10:07:20.910Z,19.50
2019-05-17T10:08:20.708Z,19.59
2019-05-17T10:09:20.689Z,19.81
2019-05-17T10:10:20.673Z,19.91
2019-05-17T10:11:20.650Z,20.16
2019-05-17T10:12:20.632Z,20.05
2019-05-17T10:13:20.614Z,19.98
2019-05-17T10:14:27.628Z,19.80
2019-05-17T10:15:20.891Z,19.68
2019-05-17T10:16:20.558Z,19.81
2019-05-17T10:17:21.201Z,19.91
2019-05-17T10:18:20.521Z,20.43
2019-05-17T10:19:23.510Z,20.66
2019-05-17T10:20:20.485Z,20.47
2019-05-17T10:21:20.466Z,21.69
2019-05-17T10:22:20.447Z,22.22
2019-05-17T10:23:20.428Z,21.86
2019-05-17T10:24:34.964Z,21.56
2019-05-17T10:25:20.396Z,22.31
2019-05-17T10:26:20.377Z,22.77
2019-05-17T10:27:20.357Z,23.51
2019-05-17T10:28:20.639Z,22.95
2019-05-17T10:29:20.321Z,21.69
2019-05-17T10:30:20.963Z,20.92
2019-05-17T10:31:20.286Z,20.57
2019-05-17T10:32:20.639Z,20.14
2019-05-17T10:33:20.251Z,19.78
2019-05-17T10:34:20.401Z,19.73
2019-05-17T10:35:20.367Z,19.58
2019-05-17T10:36:20.382Z,19.47
2019-05-17T10:37:20.469Z,19.13
2019-05-17T10:38:20.163Z,18.88
2019-05-17T10:39:20.142Z,18.98
2019-05-17T10:40:20.803Z,19.06
2019-05-17T10:41:20.146Z,19.22
2019-05-17T10:42:20.934Z,19.21
2019-05-17T10:43:20.531Z,19.16
2019-05-17T10:44:20.052Z,19.41
2019-05-17T10:45:20.034Z,19.77
2019-05-17T10:46:20.622Z,20.58
2019-05-17T10:47:19.994Z,22.05
2019-05-17T10:48:21.192Z,22.06
2019-05-17T10:49:20.254Z,21.94
2019-05-17T10:50:20.638Z,21.40
2019-05-17T10:51:20.335Z,21.01
2019-05-17T10:52:20.374Z,21.07
2019-05-17T10:53:20.494Z,21.09
2019-05-17T10:54:20.688Z,21.47
2019-05-17T10:55:20.129Z,22.33
2019-05-17T10:56:23.212Z,23.48
2019-05-17T10:57:19.840Z,24.27
2019-05-17T10:58:21.247Z,24.32
2019-05-17T10:59:20.308Z,23.57
2019-05-17T11:00:19.927Z,23.47
2019-05-17T11:01:20.113Z,23.15
2019-05-17T11:02:19.894Z,22.35
2019-05-17T11:03:20.302Z,21.86
2019-05-17T11:04:19.835Z,21.88
2019-05-17T11:05:20.186Z,22.83
2019-05-17T11:06:19.848Z,22.72
2019-05-17T11:07:20.020Z,22.12
2019-05-17T11:08:19.898Z,21.34
2019-05-17T11:09:20.478Z,20.73
2019-05-17T11:10:19.612Z,20.48
2019-05-17T11:11:20.214Z,20.11
2019-05-17T11:12:19.550Z,19.80
2019-05-17T11:13:19.533Z,19.62
2019-05-17T11:14:19.517Z,19.47
2019-05-17T11:15:19.500Z,19.32
2019-05-17T11:16:19.480Z,19.26
2019-05-17T11:17:19.461Z,19.39
2019-05-17T11:18:19.444Z,19.55
2019-05-17T11:19:19.426Z,19.61
2019-05-17T11:20:19.409Z,19.58
2019-05-17T11:21:19.389Z,19.63
2019-05-17T11:22:19.371Z,19.50
2019-05-17T11:23:19.350Z,19.58
2019-05-17T11:24:19.332Z,19.84
2019-05-17T11:25:19.317Z,20.24
2019-05-17T11:26:19.295Z,20.26
2019-05-17T11:27:19.277Z,20.73
2019-05-17T11:28:19.257Z,20.88
2019-05-17T11:29:19.239Z,20.77
2019-05-17T11:30:19.220Z,20.74
2019-05-17T11:31:19.203Z,20.82
2019-05-17T11:32:19.182Z,20.87
2019-05-17T11:33:19.165Z,20.54
2019-05-17T11:34:19.148Z,20.74
2019-05-17T11:35:19.127Z,20.59
2019-05-17T11:36:19.111Z,20.29
2019-05-17T11:37:19.090Z,19.99
2019-05-17T11:38:19.078Z,19.69
2019-05-17T11:39:19.052Z,19.68
2019-05-17T11:40:19.035Z,19.50
2019-05-17T11:41:21.591Z,19.61
2019-05-17T11:42:18.997Z,19.69
2019-05-17T11:43:18.978Z,19.94
2019-05-17T11:44:18.968Z,20.17
2019-05-17T11:45:27.199Z,21.10
2019-05-17T11:46:18.922Z,20.95
2019-05-17T11:47:18.903Z,20.74
2019-05-17T11:48:18.887Z,20.73
2019-05-17T11:49:18.866Z,20.80
2019-05-17T11:50:18.850Z,20.43
2019-05-17T11:51:18.830Z,20.51
2019-05-17T11:52:18.816Z,20.51
2019-05-17T11:53:18.845Z,20.72
2019-05-17T11:54:18.774Z,20.69
2019-05-17T11:55:18.754Z,20.76
2019-05-17T11:56:18.735Z,20.59
2019-05-17T11:57:18.719Z,20.39
2019-05-17T11:58:18.700Z,20.43
2019-05-17T11:59:18.680Z,20.16
2019-05-17T12:00:18.662Z,20.32
2019-05-17T12:01:18.645Z,20.48
2019-05-17T12:02:21.363Z,20.74
2019-05-17T12:03:18.605Z,21.25
2019-05-17T12:04:18.587Z,22.65
2019-05-17T12:05:18.568Z,23.51
2019-05-17T12:06:18.550Z,23.69
2019-05-17T12:07:18.530Z,24.55
2019-05-17T12:08:18.512Z,23.84
2019-05-17T12:09:18.497Z,22.92
2019-05-17T12:10:18.477Z,22.35
2019-05-17T12:11:18.461Z,21.98
2019-05-17T12:12:18.442Z,21.25
2019-05-17T12:13:18.426Z,21.03
2019-05-17T12:14:18.410Z,20.91
2019-05-17T12:15:18.392Z,20.55
2019-05-17T12:16:18.371Z,20.02
2019-05-17T12:17:18.363Z,19.81
2019-05-17T12:18:18.338Z,19.50
2019-05-17T12:19:18.321Z,19.21
2019-05-17T12:20:18.300Z,19.21
2019-05-17T12:21:18.284Z,19.06
2019-05-17T12:22:18.263Z,19.04
2019-05-17T12:23:18.244Z,19.19
2019-05-17T12:24:18.224Z,19.18
2019-05-17T12:25:18.207Z,19.00
2019-05-17T12:26:18.189Z,18.90
2019-05-17T12:27:18.170Z,18.92
2019-05-17T12:28:18.150Z,18.95
2019-05-17T12:29:18.130Z,19.02
2019-05-17T12:30:18.111Z,19.19
2019-05-17T12:31:18.092Z,19.08
2019-05-17T12:32:18.080Z,19.10
2019-05-17T12:33:18.052Z,19.22
2019-05-17T12:34:18.038Z,19.31
2019-05-17T12:35:18.012Z,19.36
2019-05-17T12:36:17.996Z,19.56
2019-05-17T12:37:17.973Z,19.46
2019-05-17T12:38:17.956Z,19.23
2019-05-17T12:39:17.934Z,19.29
2019-05-17T12:40:17.914Z,19.59
2019-05-17T12:41:17.903Z,19.71
2019-05-17T12:42:17.879Z,19.94
2019-05-17T12:43:17.860Z,20.35
2019-05-17T12:44:17.838Z,20.24
2019-05-17T12:45:17.818Z,20.03
2019-05-17T12:46:17.801Z,20.39
2019-05-17T12:47:17.784Z,20.35
2019-05-17T12:48:17.759Z,20.16
2019-05-17T12:49:17.739Z,19.91
2019-05-17T12:50:17.721Z,19.59
2019-05-17T12:51:17.701Z,19.54
2019-05-17T12:52:17.681Z,19.59